• Join FlightAware (Why Join?)
  • Login
  • US Flag 
04:40AM EDT


 

Airport Tracker/Info


-or-


 

Live Flight TrackerFlight Track Log ✈ N4455S ✈ 20-Jun-2013 ✈ KFRG - KALB

Flight Track Log - Related Links

Times and Time Zones

All times are in EDT time to prevent confusion due to time zone crossing. See the N4455S flight status page for this flight to view local times or setup timezone preferences in your user account.

Time Position Orientation Groundspeed Altitude Reporting Facility
EDT Latitude Longitude Course Direction KTS MPH feet Rate Location/Type
10:53AM 40.6833 -73.4167 24° Northeast 117 135 1,500  Level New York TRACON
10:54AM 40.6667 -73.4500 237° Southwest 107 123 2,400 780 Climbing New York TRACON
10:55AM 40.6500 -73.4833 237° Southwest 117 135 3,000 720 Climbing New York TRACON
10:56AM 40.6333 -73.5167 237° Southwest 124 143 3,900 1,020 Climbing New York TRACON
10:57AM 40.6500 -73.5667 294° West 120 138 5,200 960 Climbing New York TRACON
10:58AM 40.9092 -73.2845 24° Northeast  Level FlightAware Approximate
10:58AM 40.6833 -73.5667 360° North 136 157 6,000  Level New York TRACON
10:59AM 40.7167 -73.5500 21° North 175 201 6,000 420 Level New York TRACON
11:00AM 40.7667 -73.5167 27° Northeast 142 163 6,900 540 Climbing New York TRACON
11:01AM 40.8000 -73.5000 21° North 161 185 7,100  Climbing New York TRACON
11:02AM 40.8333 -73.4500 49° Northeast 178 205 7,000 -60 Descending New York TRACON
11:03AM 40.8667 -73.4167 37° Northeast 179 206 7,000  Level New York TRACON
11:05AM 40.9167 -73.3000 60° Northeast 176 203 7,000 -60 Level New York TRACON
11:06AM 40.9500 -73.2500 49° Northeast 182 209 6,900  Descending New York TRACON
11:07AM 41.0000 -73.2667 346° North 168 193 7,000  Climbing New York TRACON
11:08AM 41.0500 -73.2667 360° North 172 198 7,000  Level New York TRACON
11:09AM 41.1000 -73.2667 360° North 169 194 7,000  Level New York TRACON
11:10AM 41.1500 -73.2667 360° North 171 197 7,000  Level New York TRACON
11:11AM 41.1833 -73.2667 360° North 169 194 7,000  Level New York TRACON
11:12AM 41.2333 -73.2667 360° North 171 197 7,000  Level New York TRACON
11:13AM 41.2969 -73.2717 357° North 183 211 7,000  Level Boston Center
11:14AM 41.3450 -73.2722 360° North 183 211 7,100  Climbing Boston Center
11:15AM 41.3908 -73.2728 359° North 177 204 7,100 -60 Level Boston Center
11:16AM 41.4386 -73.2764 357° North 172 198 7,000  Descending Boston Center
11:17AM 41.4867 -73.2742 North 177 204 7,100  Climbing Boston Center
11:18AM 41.5344 -73.2831 352° North 177 204 7,000 -60 Descending Boston Center
11:19AM 41.5781 -73.3003 344° North 172 198 7,000  Level Boston Center
11:20AM 41.6239 -73.3231 340° North 167 192 7,100  Climbing Boston Center
11:21AM 41.6675 -73.3406 343° North 167 192 7,000 -60 Descending Boston Center
11:22AM 41.7111 -73.3606 341° North 167 192 7,000  Level Boston Center
11:23AM 41.7525 -73.3778 343° North 167 192 7,000  Level Boston Center
11:24AM 41.8003 -73.3953 345° North 167 192 7,100  Climbing Boston Center
11:25AM 41.8439 -73.4125 344° North 162 186 7,000 -60 Descending Boston Center
11:26AM 41.8939 -73.4358 341° North 162 186 7,000  Level Boston Center
11:27AM 41.9353 -73.4503 345° North 167 192 7,000  Level Boston Center
11:28AM 41.9831 -73.4761 338° Northwest 167 192 7,000 -60 Level Boston Center
11:29AM 42.0203 -73.4936 341° North 167 192 6,900  Descending Boston Center
11:30AM 42.0597 -73.5111 342° North 167 192 7,000 60 Climbing Boston Center
11:31AM 42.0931 -73.5256 342° North 167 192 7,000  Level Boston Center
11:31AM 42.1097 -73.5314 345° North 167 192 7,000  Level Boston Center
11:32AM 42.1367 -73.5403 346° North 169 194 7,000  Level Boston Center
11:33AM 42.1803 -73.5636 338° Northwest 167 192 7,000 -240 Level Boston Center
11:34AM 42.2236 -73.5839 341° North 164 189 6,600 -600 Descending Boston Center
11:35AM 42.2672 -73.6017 343° North 162 186 5,800 -1,080 Descending Boston Center
11:36AM 42.3339 -73.6281 344° North 167 192 4,000 -1,140 Descending Boston Center
11:37AM 42.3650 -73.6400 344° North 175 201 3,400 -600 Descending Boston Center
11:38AM 42.4125 -73.6578 345° North 172 198 3,000 -240 Descending Boston Center
11:39AM 42.4542 -73.6783 340° North 162 186 3,000  Level Boston Center
11:40AM 42.4978 -73.6961 343° North 154 177 3,000 -300 Level Boston Center
11:41AM 42.5392 -73.7139 342° North 159 183 2,500 -420 Descending Boston Center
11:42AM 42.5828 -73.7344 341° North 162 186 2,200 -180 Descending Boston Center
11:43AM 42.6075 -73.7575 326° Northwest 150 173 2,200 -180 Level Boston Center
11:44AM 42.6444 -73.7892 328° Northwest 149 171 1,900 -300 Descending Boston Center
11:45AM 42.6756 -73.8042 340° North 113 130 1,700 -420 Descending Boston Center
11:45AM 42.7028 -73.8075 355° North 100 115 1,100 -660 Descending Boston Center
11:47AM 42.7339 -73.8053 North 95 109 400 -660 Descending Boston Center